createdAt,value
2019-05-09T05:12:51.506Z,17.10
2019-05-09T05:15:20.533Z,17.80
2019-05-09T05:17:49.178Z,17.70
2019-05-09T05:20:19.642Z,17.80
2019-05-09T05:22:52.050Z,17.80
2019-05-09T05:25:21.354Z,17.80
2019-05-09T05:27:50.089Z,17.90
2019-05-09T05:30:18.909Z,17.90
2019-05-09T05:32:54.276Z,17.90
2019-05-09T05:35:28.486Z,17.90
2019-05-09T05:37:58.117Z,17.90
2019-05-09T05:40:31.940Z,17.90
2019-05-09T05:45:23.940Z,18.00
2019-05-09T05:48:28.254Z,18.00
2019-05-09T05:50:57.812Z,18.00
2019-05-09T05:53:27.608Z,18.10
2019-05-09T05:55:54.441Z,18.00
2019-05-09T05:58:23.278Z,18.10
2019-05-09T06:00:52.022Z,18.10
2019-05-09T06:05:51.652Z,18.20
2019-05-09T06:08:17.622Z,18.20
2019-05-09T06:10:48.245Z,18.20
2019-05-09T06:13:15.197Z,18.30
2019-05-09T06:15:43.964Z,18.30
2019-05-09T06:18:13.147Z,18.30
2019-05-09T06:20:45.315Z,18.40
2019-05-09T06:23:11.095Z,18.40
2019-05-09T06:25:40.100Z,18.50
2019-05-09T06:28:08.667Z,18.50
2019-05-09T06:30:40.866Z,18.60
2019-05-09T06:33:08.750Z,18.60
2019-05-09T06:35:37.746Z,18.70
2019-05-09T06:38:03.912Z,18.70
2019-05-09T06:40:32.661Z,18.80
2019-05-09T06:43:07.942Z,18.80
2019-05-09T06:45:41.709Z,18.80
2019-05-09T06:48:09.224Z,18.90
2019-05-09T06:50:37.970Z,18.90
2019-05-09T06:53:08.008Z,19.00
2019-05-09T06:58:09.011Z,19.10
2019-05-09T07:00:41.517Z,19.10
2019-05-09T07:03:13.833Z,19.10
2019-05-09T07:06:48.101Z,19.20
2019-05-09T07:09:18.850Z,19.20
2019-05-09T07:11:48.624Z,19.30
2019-05-09T07:14:28.618Z,19.30
2019-05-09T07:16:50.159Z,19.30
2019-05-09T07:19:18.645Z,19.40
2019-05-09T07:21:53.022Z,19.40
2019-05-09T07:24:21.771Z,19.50
2019-05-09T07:26:50.516Z,19.50
2019-05-09T07:31:51.734Z,19.60
2019-05-09T07:34:24.530Z,19.60
2019-05-09T07:36:53.331Z,19.70
2019-05-09T07:39:22.063Z,19.70
2019-05-09T07:41:50.915Z,19.70
2019-05-09T07:46:54.202Z,19.80
2019-05-09T07:49:22.991Z,19.80
2019-05-09T07:51:51.646Z,19.80
2019-05-09T07:54:25.418Z,19.80
2019-05-09T07:56:49.206Z,19.90
2019-05-09T07:59:18.217Z,19.90
2019-05-09T08:04:15.066Z,19.90
2019-05-09T08:06:43.826Z,19.90
2019-05-09T08:09:12.676Z,19.90
2019-05-09T08:11:41.941Z,19.90
2019-05-09T08:14:11.001Z,19.90
2019-05-09T08:16:39.527Z,19.90
2019-05-09T08:19:08.002Z,19.90
2019-05-09T08:21:38.379Z,19.90
2019-05-09T08:24:08.061Z,19.90
2019-05-09T08:26:34.639Z,20.00
2019-05-09T08:29:03.102Z,20.00
2019-05-09T08:31:31.583Z,20.00
2019-05-09T08:34:00.041Z,20.00
2019-05-09T08:41:28.746Z,20.00
2019-05-09T08:46:22.894Z,20.00
2019-05-09T08:48:51.665Z,20.10
2019-05-09T08:51:37.564Z,20.10
2019-05-09T08:56:25.386Z,20.10
2019-05-09T08:58:57.942Z,20.10
2019-05-09T09:01:29.610Z,20.10
2019-05-09T09:03:52.184Z,20.10
2019-05-09T09:06:20.886Z,20.10
2019-05-09T09:08:49.381Z,20.20
2019-05-09T09:11:18.894Z,20.20
2019-05-09T09:16:21.453Z,20.20
2019-05-09T09:18:44.420Z,20.20
2019-05-09T09:21:13.139Z,20.20
2019-05-09T09:26:10.187Z,20.20
2019-05-09T09:28:39.033Z,20.20
2019-05-09T09:31:08.309Z,20.20
2019-05-09T09:33:37.626Z,20.20
2019-05-09T09:38:33.958Z,20.20
2019-05-09T09:41:02.446Z,20.30
2019-05-09T09:43:31.566Z,20.30
2019-05-09T09:46:10.297Z,20.30
2019-05-09T09:48:29.605Z,20.30
2019-05-09T09:50:58.375Z,20.30
2019-05-09T09:55:57.997Z,20.30
2019-05-09T09:58:27.274Z,20.30
2019-05-09T10:01:03.316Z,20.30
2019-05-09T10:03:30.500Z,20.30
2019-05-09T10:08:27.655Z,20.40
2019-05-09T10:10:58.942Z,20.40
2019-05-09T10:13:28.393Z,20.40
2019-05-09T10:18:38.170Z,20.40
2019-05-09T10:21:13.193Z,20.40
2019-05-09T10:23:41.944Z,20.40
2019-05-09T10:26:11.097Z,20.40
2019-05-09T10:31:08.687Z,20.40
2019-05-09T10:36:08.566Z,20.40
2019-05-09T10:38:35.393Z,20.40
2019-05-09T10:41:04.258Z,20.50
2019-05-09T10:44:08.851Z,20.50
2019-05-09T10:46:56.829Z,20.50
2019-05-09T10:49:17.504Z,20.50
2019-05-09T10:51:48.533Z,20.50
2019-05-09T10:54:15.441Z,20.50
2019-05-09T10:56:44.573Z,20.50
2019-05-09T10:59:13.675Z,20.60
2019-05-09T11:01:42.457Z,20.60
2019-05-09T11:04:11.318Z,20.60
2019-05-09T11:06:40.153Z,20.60
2019-05-09T11:09:09.748Z,20.60
2019-05-09T11:11:38.569Z,20.60
2019-05-09T11:14:08.551Z,20.60
2019-05-09T11:16:44.852Z,20.60
2019-05-09T11:19:07.747Z,20.60
2019-05-09T11:24:02.658Z,20.70
2019-05-09T11:26:31.149Z,20.70
2019-05-09T11:28:59.655Z,20.70
2019-05-09T11:31:29.494Z,20.70
2019-05-09T11:36:26.282Z,20.80
2019-05-09T11:38:56.572Z,20.80
2019-05-09T11:43:52.094Z,20.80
2019-05-09T11:46:20.562Z,20.80
2019-05-09T11:48:49.711Z,20.80
2019-05-09T11:51:22.630Z,20.80
2019-05-09T11:56:18.049Z,20.80
2019-05-09T11:58:45.251Z,20.90
2019-05-09T12:06:11.190Z,20.90
2019-05-09T12:08:39.681Z,20.90
2019-05-09T12:11:08.649Z,20.90
2019-05-09T12:13:38.013Z,20.90
2019-05-09T12:16:06.231Z,20.90
2019-05-09T12:18:34.994Z,20.90
2019-05-09T12:21:04.091Z,20.90
2019-05-09T12:23:32.605Z,20.90
2019-05-09T12:26:01.118Z,20.90
2019-05-09T12:28:30.227Z,20.90
2019-05-09T12:30:59.335Z,20.90
2019-05-09T12:33:31.085Z,20.90
2019-05-09T12:35:59.209Z,20.90
2019-05-09T12:38:27.765Z,20.90
2019-05-09T12:43:22.900Z,21.00
2019-05-09T12:45:51.639Z,21.00
2019-05-09T12:48:20.160Z,21.00
2019-05-09T12:50:49.242Z,21.00
2019-05-09T12:53:18.908Z,21.00
2019-05-09T12:55:47.600Z,21.00
2019-05-09T12:58:21.242Z,21.00
2019-05-09T13:00:51.941Z,21.10
2019-05-09T13:03:18.619Z,21.10
2019-05-09T13:05:47.533Z,21.10
2019-05-09T13:08:17.749Z,21.10
2019-05-09T13:10:44.779Z,21.10
2019-05-09T13:13:14.110Z,21.10
2019-05-09T13:15:48.978Z,21.10
2019-05-09T13:18:24.995Z,21.10
2019-05-09T13:20:44.626Z,21.10
2019-05-09T13:23:13.123Z,21.20
2019-05-09T13:28:10.800Z,21.20
2019-05-09T13:35:39.267Z,21.20
2019-05-09T13:38:08.499Z,21.20
2019-05-09T13:43:03.544Z,21.20
2019-05-09T13:45:32.478Z,21.30
2019-05-09T13:48:01.609Z,21.30
2019-05-09T13:52:59.010Z,21.30
2019-05-09T13:55:28.145Z,21.30
2019-05-09T13:57:59.292Z,21.30
2019-05-09T14:00:28.462Z,21.30
2019-05-09T14:02:55.207Z,21.30
2019-05-09T14:05:23.882Z,21.30
2019-05-09T14:07:55.081Z,21.40
2019-05-09T14:10:21.126Z,21.30
2019-05-09T14:13:05.732Z,21.40
2019-05-09T14:15:19.125Z,21.40
2019-05-09T14:17:53.111Z,21.40
2019-05-09T14:20:18.005Z,21.40
2019-05-09T14:22:45.447Z,21.40
2019-05-09T14:25:13.947Z,21.40
2019-05-09T14:27:48.758Z,21.40
2019-05-09T14:30:11.888Z,21.40
2019-05-09T14:32:40.560Z,21.40
2019-05-09T14:35:09.306Z,21.40
2019-05-09T14:37:38.896Z,21.40
2019-05-09T14:42:35.605Z,21.40
2019-05-09T14:45:04.605Z,21.40
2019-05-09T14:47:33.450Z,21.30
2019-05-09T14:50:02.169Z,21.40
2019-05-09T14:52:30.935Z,21.30
2019-05-09T14:54:59.463Z,21.30
2019-05-09T14:59:58.410Z,21.30
2019-05-09T15:02:25.447Z,21.40
2019-05-09T15:04:53.927Z,21.40
2019-05-09T15:07:22.416Z,21.40
2019-05-09T15:09:51.165Z,21.40
2019-05-09T15:12:20.247Z,21.40
2019-05-09T15:14:48.726Z,21.40
2019-05-09T15:17:18.476Z,21.40
2019-05-09T15:19:59.419Z,21.40
2019-05-09T15:22:14.887Z,21.50
2019-05-09T15:24:43.403Z,21.50
2019-05-09T15:29:40.951Z,21.50
2019-05-09T15:32:12.160Z,21.50
2019-05-09T15:34:38.616Z,21.50
2019-05-09T15:39:38.092Z,21.50
2019-05-09T15:42:07.270Z,21.50
2019-05-09T15:44:34.946Z,21.60
2019-05-09T15:47:08.291Z,21.60
2019-05-09T15:49:38.540Z,21.60
2019-05-09T15:52:07.390Z,21.60
2019-05-09T15:54:34.226Z,21.70
2019-05-09T15:57:02.996Z,21.70
2019-05-09T15:59:31.546Z,21.70
2019-05-09T16:02:00.044Z,21.80
2019-05-09T16:04:29.053Z,21.80
2019-05-09T16:06:58.367Z,21.90
2019-05-09T16:09:28.615Z,21.90
2019-05-09T16:14:24.502Z,22.00
2019-05-09T16:16:53.001Z,22.00
2019-05-09T16:19:21.501Z,22.00
2019-05-09T16:21:50.204Z,22.10
2019-05-09T16:24:19.140Z,22.10
2019-05-09T16:26:48.762Z,22.20
2019-05-09T16:29:17.822Z,22.20
2019-05-09T16:31:47.898Z,22.20
2019-05-09T16:34:14.369Z,22.30
2019-05-09T16:36:42.865Z,22.30
2019-05-09T16:39:11.994Z,22.40
2019-05-09T16:41:40.753Z,22.40
2019-05-09T16:44:09.535Z,22.40
2019-05-09T16:46:38.793Z,22.40
2019-05-09T16:49:11.585Z,22.40
2019-05-09T16:51:37.874Z,22.40
2019-05-09T16:54:07.258Z,22.40
2019-05-09T16:56:34.020Z,22.40
2019-05-09T17:01:31.071Z,22.40
2019-05-09T17:03:59.568Z,22.30
2019-05-09T17:06:28.226Z,22.30
2019-05-09T17:08:58.417Z,22.30
2019-05-09T17:11:27.821Z,22.30
2019-05-09T17:13:54.706Z,22.30
2019-05-09T17:18:52.062Z,22.20
2019-05-09T17:21:28.098Z,22.20
2019-05-09T17:23:55.419Z,22.20
2019-05-09T17:26:23.907Z,22.10
2019-05-09T17:28:52.667Z,22.10
2019-05-09T17:31:21.505Z,22.10
2019-05-09T17:33:49.982Z,22.10
2019-05-09T17:36:18.828Z,22.10
2019-05-09T17:43:44.791Z,22.00
2019-05-09T17:46:14.034Z,22.00
2019-05-09T17:48:42.874Z,21.90
2019-05-09T17:51:11.638Z,21.90
2019-05-09T17:56:10.892Z,21.90
2019-05-09T17:58:38.128Z,21.90
2019-05-09T18:03:35.106Z,21.80
2019-05-09T18:06:03.874Z,21.80
2019-05-09T18:08:32.991Z,21.80
2019-05-09T18:11:01.482Z,21.70
2019-05-09T18:13:31.843Z,21.70
2019-05-09T18:15:59.401Z,21.70
2019-05-09T18:18:28.549Z,21.70
2019-05-09T18:20:58.029Z,21.60
2019-05-09T18:23:28.163Z,21.60
2019-05-09T18:25:54.765Z,21.60
2019-05-09T18:28:23.693Z,21.60
2019-05-09T18:30:52.264Z,21.60
2019-05-09T18:35:57.664Z,21.50
2019-05-09T18:38:28.190Z,21.60
2019-05-09T18:40:57.980Z,21.50
2019-05-09T18:45:53.428Z,21.50
2019-05-09T18:48:22.293Z,21.50
2019-05-09T18:50:50.790Z,21.50
2019-05-09T18:53:19.897Z,21.50
2019-05-09T18:55:48.631Z,21.40
2019-05-09T18:58:17.387Z,21.50
2019-05-09T19:05:43.538Z,21.40
2019-05-09T19:10:40.919Z,21.40
2019-05-09T19:15:45.391Z,21.40
2019-05-09T19:18:22.430Z,21.40
2019-05-09T19:20:55.710Z,21.30
2019-05-09T19:25:53.496Z,21.30
2019-05-09T19:30:51.414Z,21.30
2019-05-09T19:35:49.298Z,21.30
2019-05-09T19:38:17.962Z,21.30
2019-05-09T19:40:47.036Z,21.30
2019-05-09T19:43:15.460Z,21.30
2019-05-09T19:45:44.019Z,21.30
2019-05-09T19:53:10.317Z,21.20
2019-05-09T19:58:07.050Z,21.20
2019-05-09T20:00:35.799Z,21.20
2019-05-09T20:03:04.286Z,21.20
2019-05-09T20:08:01.390Z,21.20
2019-05-09T20:10:35.534Z,21.20
2019-05-09T20:13:13.403Z,21.20
2019-05-09T20:15:42.199Z,21.20
2019-05-09T20:18:10.690Z,21.20
2019-05-09T20:20:39.810Z,21.20
2019-05-09T20:23:08.898Z,21.20
2019-05-09T20:25:37.894Z,21.20
2019-05-09T20:33:03.260Z,21.20
2019-05-09T20:35:31.727Z,21.20
2019-05-09T20:38:00.384Z,21.10
2019-05-09T20:40:29.131Z,21.10
2019-05-09T20:42:58.226Z,21.10
2019-05-09T20:45:27.025Z,21.10
2019-05-09T20:47:55.781Z,21.10
2019-05-09T20:50:24.281Z,21.10
2019-05-09T20:53:08.151Z,21.10
2019-05-09T20:55:21.754Z,21.10
